sensor_id;sensor_type;location;lat;lon;timestamp;pressure;altitude;pressure_sealevel;temperature;humidity
25869;BME280;13688;53.154;18.136;2022-07-15T00:01:02;100643.63;;;13.99;56.10
25869;BME280;13688;53.154;18.136;2022-07-15T00:06:24;100659.84;;;13.99;56.32
25869;BME280;13688;53.154;18.136;2022-07-15T00:11:47;100671.39;;;14.01;56.55
25869;BME280;13688;53.154;18.136;2022-07-15T00:17:09;100661.28;;;14.03;57.06
25869;BME280;13688;53.154;18.136;2022-07-15T00:22:32;100652.47;;;14.01;57.43
25869;BME280;13688;53.154;18.136;2022-07-15T00:28:03;100648.91;;;14.00;58.23
25869;BME280;13688;53.154;18.136;2022-07-15T00:33:26;100647.33;;;13.98;58.59
25869;BME280;13688;53.154;18.136;2022-07-15T00:38:49;100650.18;;;13.96;59.36
25869;BME280;13688;53.154;18.136;2022-07-15T00:44:11;100646.47;;;13.97;59.95
25869;BME280;13688;53.154;18.136;2022-07-15T00:49:35;100651.62;;;14.00;60.47
25869;BME280;13688;53.154;18.136;2022-07-15T00:54:58;100644.21;;;14.02;60.93
25869;BME280;13688;53.154;18.136;2022-07-15T01:00:22;100650.62;;;14.01;61.32
25869;BME280;13688;53.154;18.136;2022-07-15T01:05:45;100641.22;;;13.96;61.41
25869;BME280;13688;53.154;18.136;2022-07-15T01:11:09;100647.22;;;13.90;61.75
25869;BME280;13688;53.154;18.136;2022-07-15T01:16:31;100648.62;;;13.84;62.02
25869;BME280;13688;53.154;18.136;2022-07-15T01:21:54;100644.51;;;13.80;62.32
25869;BME280;13688;53.154;18.136;2022-07-15T01:27:17;100635.66;;;13.78;62.72
25869;BME280;13688;53.154;18.136;2022-07-15T01:32:41;100643.21;;;13.74;63.04
25869;BME280;13688;53.154;18.136;2022-07-15T01:38:03;100637.95;;;13.73;63.36
25869;BME280;13688;53.154;18.136;2022-07-15T01:43:25;100634.55;;;13.71;63.78
25869;BME280;13688;53.154;18.136;2022-07-15T01:48:48;100633.70;;;13.70;64.10
25869;BME280;13688;53.154;18.136;2022-07-15T01:54:29;100642.06;;;13.67;64.33
25869;BME280;13688;53.154;18.136;2022-07-15T01:59:53;100648.61;;;13.65;64.72
25869;BME280;13688;53.154;18.136;2022-07-15T02:05:16;100649.90;;;13.61;64.95
25869;BME280;13688;53.154;18.136;2022-07-15T02:10:38;100654.14;;;13.54;65.08
25869;BME280;13688;53.154;18.136;2022-07-15T02:16:00;100659.39;;;13.45;65.37
25869;BME280;13688;53.154;18.136;2022-07-15T02:21:24;100654.67;;;13.38;65.78
25869;BME280;13688;53.154;18.136;2022-07-15T02:26:47;100651.66;;;13.31;65.99
25869;BME280;13688;53.154;18.136;2022-07-15T02:32:10;100663.33;;;13.22;66.29
25869;BME280;13688;53.154;18.136;2022-07-15T02:37:32;100663.97;;;13.14;66.54
25869;BME280;13688;53.154;18.136;2022-07-15T02:42:56;100662.09;;;13.05;66.84
25869;BME280;13688;53.154;18.136;2022-07-15T02:48:19;100657.23;;;12.99;67.18
25869;BME280;13688;53.154;18.136;2022-07-15T02:53:43;100664.61;;;12.97;67.29
25869;BME280;13688;53.154;18.136;2022-07-15T02:59:05;100662.30;;;12.93;67.66
25869;BME280;13688;53.154;18.136;2022-07-15T03:04:27;100668.98;;;12.88;67.85
25869;BME280;13688;53.154;18.136;2022-07-15T03:09:49;100672.09;;;12.84;68.15
25869;BME280;13688;53.154;18.136;2022-07-15T03:15:12;100674.19;;;12.80;68.40
25869;BME280;13688;53.154;18.136;2022-07-15T03:20:35;100678.02;;;12.78;68.49
25869;BME280;13688;53.154;18.136;2022-07-15T03:25:58;100678.16;;;12.76;68.75
25869;BME280;13688;53.154;18.136;2022-07-15T03:31:21;100689.80;;;12.77;68.86
25869;BME280;13688;53.154;18.136;2022-07-15T03:36:44;100692.36;;;12.78;69.14
25869;BME280;13688;53.154;18.136;2022-07-15T03:42:08;100695.77;;;12.80;69.40
25869;BME280;13688;53.154;18.136;2022-07-15T03:47:31;100689.14;;;12.84;69.50
25869;BME280;13688;53.154;18.136;2022-07-15T03:52:53;100696.81;;;12.89;69.62
25869;BME280;13688;53.154;18.136;2022-07-15T03:58:16;100705.23;;;12.96;69.67
25869;BME280;13688;53.154;18.136;2022-07-15T04:03:38;100703.82;;;13.01;69.65
25869;BME280;13688;53.154;18.136;2022-07-15T04:09:00;100699.60;;;13.08;69.53
25869;BME280;13688;53.154;18.136;2022-07-15T04:14:23;100699.92;;;13.15;69.69
25869;BME280;13688;53.154;18.136;2022-07-15T04:19:45;100702.94;;;13.22;69.48
25869;BME280;13688;53.154;18.136;2022-07-15T04:25:08;100708.80;;;13.27;69.61
25869;BME280;13688;53.154;18.136;2022-07-15T04:30:31;100714.66;;;13.32;69.58
25869;BME280;13688;53.154;18.136;2022-07-15T04:35:54;100717.08;;;13.35;68.88
25869;BME280;13688;53.154;18.136;2022-07-15T04:41:17;100715.94;;;13.37;68.96
25869;BME280;13688;53.154;18.136;2022-07-15T04:46:39;100711.56;;;13.46;69.10
25869;BME280;13688;53.154;18.136;2022-07-15T04:52:01;100726.94;;;13.55;68.64
25869;BME280;13688;53.154;18.136;2022-07-15T04:57:24;100721.96;;;13.60;68.58
25869;BME280;13688;53.154;18.136;2022-07-15T05:02:46;100716.58;;;13.70;68.31
25869;BME280;13688;53.154;18.136;2022-07-15T05:08:09;100719.19;;;13.81;68.32
25869;BME280;13688;53.154;18.136;2022-07-15T05:13:32;100728.41;;;13.88;68.09
25869;BME280;13688;53.154;18.136;2022-07-15T05:18:54;100730.88;;;14.01;67.87
25869;BME280;13688;53.154;18.136;2022-07-15T05:24:16;100737.13;;;14.11;67.62
25869;BME280;13688;53.154;18.136;2022-07-15T05:29:38;100733.28;;;14.14;67.07
25869;BME280;13688;53.154;18.136;2022-07-15T05:35:01;100735.84;;;14.15;66.90
25869;BME280;13688;53.154;18.136;2022-07-15T05:40:24;100736.98;;;14.22;66.17
25869;BME280;13688;53.154;18.136;2022-07-15T05:45:46;100754.63;;;14.26;66.24
25869;BME280;13688;53.154;18.136;2022-07-15T05:51:09;100732.14;;;14.36;66.08
25869;BME280;13688;53.154;18.136;2022-07-15T05:56:31;100751.36;;;14.42;65.67
25869;BME280;13688;53.154;18.136;2022-07-15T06:01:53;100750.39;;;14.53;65.29
25869;BME280;13688;53.154;18.136;2022-07-15T06:07:16;100752.94;;;14.54;65.06
25869;BME280;13688;53.154;18.136;2022-07-15T06:12:39;100772.32;;;14.59;64.82
25869;BME280;13688;53.154;18.136;2022-07-15T06:18:11;100771.44;;;14.78;64.28
25869;BME280;13688;53.154;18.136;2022-07-15T06:23:35;100775.55;;;14.82;64.33
25869;BME280;13688;53.154;18.136;2022-07-15T06:28:58;100774.53;;;14.93;63.95
25869;BME280;13688;53.154;18.136;2022-07-15T06:34:20;100777.49;;;15.09;63.52
25869;BME280;13688;53.154;18.136;2022-07-15T06:39:43;100785.71;;;15.27;62.93
25869;BME280;13688;53.154;18.136;2022-07-15T06:45:07;100807.63;;;15.34;62.47
25869;BME280;13688;53.154;18.136;2022-07-15T06:50:29;100806.73;;;15.43;62.11
25869;BME280;13688;53.154;18.136;2022-07-15T06:55:52;100819.00;;;15.47;60.98
25869;BME280;13688;53.154;18.136;2022-07-15T07:01:15;100806.00;;;15.51;60.71
25869;BME280;13688;53.154;18.136;2022-07-15T07:06:38;100803.85;;;15.64;60.12
25869;BME280;13688;53.154;18.136;2022-07-15T07:12:01;100814.03;;;15.80;59.45
25869;BME280;13688;53.154;18.136;2022-07-15T07:17:25;100819.24;;;15.91;58.98
25869;BME280;13688;53.154;18.136;2022-07-15T07:22:47;100811.11;;;15.91;57.84
25869;BME280;13688;53.154;18.136;2022-07-15T07:28:10;100818.80;;;15.95;57.73
25869;BME280;13688;53.154;18.136;2022-07-15T07:33:32;100810.86;;;16.12;57.05
25869;BME280;13688;53.154;18.136;2022-07-15T07:38:55;100813.56;;;16.29;56.30
25869;BME280;13688;53.154;18.136;2022-07-15T07:44:17;100831.11;;;16.35;54.91
25869;BME280;13688;53.154;18.136;2022-07-15T07:49:39;100831.48;;;16.40;54.79
25869;BME280;13688;53.154;18.136;2022-07-15T07:55:01;100831.73;;;16.47;54.29
25869;BME280;13688;53.154;18.136;2022-07-15T08:00:36;100831.52;;;16.76;53.06
25869;BME280;13688;53.154;18.136;2022-07-15T08:06:01;100844.09;;;16.77;52.96
25869;BME280;13688;53.154;18.136;2022-07-15T08:11:24;100870.87;;;16.72;51.75
25869;BME280;13688;53.154;18.136;2022-07-15T08:16:48;100844.53;;;16.54;51.52
25869;BME280;13688;53.154;18.136;2022-07-15T08:22:11;100842.27;;;16.68;51.53
25869;BME280;13688;53.154;18.136;2022-07-15T08:27:33;100861.06;;;16.97;50.98
25869;BME280;13688;53.154;18.136;2022-07-15T08:32:57;100872.23;;;17.11;49.71
25869;BME280;13688;53.154;18.136;2022-07-15T08:38:19;100865.26;;;17.09;49.37
25869;BME280;13688;53.154;18.136;2022-07-15T08:43:41;100859.27;;;17.05;49.50
25869;BME280;13688;53.154;18.136;2022-07-15T08:49:07;100860.28;;;17.04;49.03
25869;BME280;13688;53.154;18.136;2022-07-15T08:54:33;100898.39;;;16.95;47.86
25869;BME280;13688;53.154;18.136;2022-07-15T08:59:57;100862.84;;;16.88;47.96
25869;BME280;13688;53.154;18.136;2022-07-15T09:05:27;100867.91;;;16.83;48.02
25869;BME280;13688;53.154;18.136;2022-07-15T09:10:56;100875.05;;;16.84;48.12
25869;BME280;13688;53.154;18.136;2022-07-15T09:16:20;100898.48;;;16.85;48.20
25869;BME280;13688;53.154;18.136;2022-07-15T09:21:43;100892.03;;;16.86;47.74
25869;BME280;13688;53.154;18.136;2022-07-15T09:27:28;100911.05;;;17.04;47.78
25869;BME280;13688;53.154;18.136;2022-07-15T09:32:57;100903.56;;;17.24;47.51
25869;BME280;13688;53.154;18.136;2022-07-15T09:44:17;100894.03;;;17.45;47.09
25869;BME280;13688;53.154;18.136;2022-07-15T09:49:41;100898.23;;;17.66;46.64
25869;BME280;13688;53.154;18.136;2022-07-15T09:55:03;100888.22;;;17.92;45.98
25869;BME280;13688;53.154;18.136;2022-07-15T10:00:26;100903.78;;;18.08;45.01
25869;BME280;13688;53.154;18.136;2022-07-15T10:05:51;100898.00;;;18.11;44.15
25869;BME280;13688;53.154;18.136;2022-07-15T10:11:15;100885.08;;;18.13;43.34
25869;BME280;13688;53.154;18.136;2022-07-15T10:17:02;100888.37;;;18.25;43.73
25869;BME280;13688;53.154;18.136;2022-07-15T10:39:54;100911.03;;;18.92;40.67
25869;BME280;13688;53.154;18.136;2022-07-15T10:45:17;100892.45;;;18.87;39.97
25869;BME280;13688;53.154;18.136;2022-07-15T10:50:41;100893.98;;;18.82;39.92
25869;BME280;13688;53.154;18.136;2022-07-15T10:56:30;100886.83;;;18.73;39.86
25869;BME280;13688;53.154;18.136;2022-07-15T11:07:25;100906.30;;;18.44;38.98
25869;BME280;13688;53.154;18.136;2022-07-15T11:12:57;100901.54;;;18.46;38.90
25869;BME280;13688;53.154;18.136;2022-07-15T11:18:21;100894.58;;;18.59;38.69
25869;BME280;13688;53.154;18.136;2022-07-15T11:23:44;100909.61;;;18.72;37.68
25869;BME280;13688;53.154;18.136;2022-07-15T11:29:08;100919.84;;;18.78;37.88
25869;BME280;13688;53.154;18.136;2022-07-15T11:34:46;100904.35;;;18.78;38.52
25869;BME280;13688;53.154;18.136;2022-07-15T11:40:18;100924.29;;;18.87;38.65
25869;BME280;13688;53.154;18.136;2022-07-15T11:45:59;100923.78;;;18.83;38.41
25869;BME280;13688;53.154;18.136;2022-07-15T11:51:23;100934.48;;;18.77;38.84
25869;BME280;13688;53.154;18.136;2022-07-15T11:57:01;100932.62;;;18.77;39.05
25869;BME280;13688;53.154;18.136;2022-07-15T12:02:24;100937.93;;;18.95;39.04
25869;BME280;13688;53.154;18.136;2022-07-15T12:07:51;100935.39;;;19.26;39.03
25869;BME280;13688;53.154;18.136;2022-07-15T12:13:13;100935.57;;;19.41;39.19
25869;BME280;13688;53.154;18.136;2022-07-15T12:18:37;100926.86;;;19.37;39.25
25869;BME280;13688;53.154;18.136;2022-07-15T12:24:09;100943.39;;;19.28;39.47
25869;BME280;13688;53.154;18.136;2022-07-15T12:29:35;100926.70;;;19.14;39.92
25869;BME280;13688;53.154;18.136;2022-07-15T12:35:01;100944.06;;;19.30;40.12
25869;BME280;13688;53.154;18.136;2022-07-15T12:40:29;100954.63;;;19.49;39.85
25869;BME280;13688;53.154;18.136;2022-07-15T12:45:51;100946.65;;;19.64;38.96
25869;BME280;13688;53.154;18.136;2022-07-15T12:51:15;100961.31;;;19.63;38.73
25869;BME280;13688;53.154;18.136;2022-07-15T12:56:58;100957.73;;;19.70;39.09
25869;BME280;13688;53.154;18.136;2022-07-15T13:02:20;100958.89;;;19.84;38.11
25869;BME280;13688;53.154;18.136;2022-07-15T13:07:43;100958.52;;;19.95;37.62
25869;BME280;13688;53.154;18.136;2022-07-15T13:13:05;100966.00;;;20.10;37.69
25869;BME280;13688;53.154;18.136;2022-07-15T13:18:30;100971.75;;;20.23;37.40
25869;BME280;13688;53.154;18.136;2022-07-15T13:23:54;100969.05;;;20.62;36.76
25869;BME280;13688;53.154;18.136;2022-07-15T13:29:17;100954.13;;;20.73;36.68
25869;BME280;13688;53.154;18.136;2022-07-15T13:34:40;100970.94;;;20.62;36.55
25869;BME280;13688;53.154;18.136;2022-07-15T13:40:03;100969.67;;;20.72;36.42
25869;BME280;13688;53.154;18.136;2022-07-15T13:45:26;100962.03;;;20.68;35.76
25869;BME280;13688;53.154;18.136;2022-07-15T13:50:51;100960.26;;;20.75;36.00
25869;BME280;13688;53.154;18.136;2022-07-15T13:56:25;100971.53;;;21.03;35.64
25869;BME280;13688;53.154;18.136;2022-07-15T14:01:48;100967.12;;;21.25;34.39
25869;BME280;13688;53.154;18.136;2022-07-15T14:07:13;100956.03;;;21.26;34.47
25869;BME280;13688;53.154;18.136;2022-07-15T14:12:35;100983.80;;;21.38;34.20
25869;BME280;13688;53.154;18.136;2022-07-15T14:17:58;100968.64;;;21.50;34.74
25869;BME280;13688;53.154;18.136;2022-07-15T14:23:21;100973.45;;;21.48;34.37
25869;BME280;13688;53.154;18.136;2022-07-15T14:28:45;100977.22;;;21.24;34.29
25869;BME280;13688;53.154;18.136;2022-07-15T14:34:07;100969.65;;;21.03;34.75
25869;BME280;13688;53.154;18.136;2022-07-15T14:39:30;100975.30;;;21.02;35.06
25869;BME280;13688;53.154;18.136;2022-07-15T14:44:52;100973.30;;;21.27;34.78
25869;BME280;13688;53.154;18.136;2022-07-15T14:50:15;100961.61;;;21.70;34.80
25869;BME280;13688;53.154;18.136;2022-07-15T14:55:38;100980.00;;;22.44;34.74
25869;BME280;13688;53.154;18.136;2022-07-15T15:01:00;100974.02;;;22.70;33.03
25869;BME280;13688;53.154;18.136;2022-07-15T15:06:22;100970.77;;;22.30;32.51
25869;BME280;13688;53.154;18.136;2022-07-15T15:11:44;100984.12;;;21.95;33.05
25869;BME280;13688;53.154;18.136;2022-07-15T15:17:09;100971.02;;;21.91;33.53
25869;BME280;13688;53.154;18.136;2022-07-15T15:22:31;100970.25;;;22.56;33.21
25869;BME280;13688;53.154;18.136;2022-07-15T15:27:55;100974.62;;;23.44;32.61
25869;BME280;13688;53.154;18.136;2022-07-15T15:33:17;100967.64;;;23.91;32.24
25869;BME280;13688;53.154;18.136;2022-07-15T15:38:40;100986.33;;;24.78;31.44
25869;BME280;13688;53.154;18.136;2022-07-15T15:44:03;100968.13;;;25.58;28.99
25869;BME280;13688;53.154;18.136;2022-07-15T15:49:26;100981.53;;;26.65;27.23
25869;BME280;13688;53.154;18.136;2022-07-15T15:54:49;100962.23;;;26.65;26.06
25869;BME280;13688;53.154;18.136;2022-07-15T16:00:13;100967.45;;;26.15;26.26
25869;BME280;13688;53.154;18.136;2022-07-15T16:05:35;100982.67;;;27.34;25.56
25869;BME280;13688;53.154;18.136;2022-07-15T16:10:58;100956.92;;;28.51;24.59
25869;BME280;13688;53.154;18.136;2022-07-15T16:16:21;100960.08;;;29.03;23.86
25869;BME280;13688;53.154;18.136;2022-07-15T16:21:44;100960.49;;;29.60;22.55
25869;BME280;13688;53.154;18.136;2022-07-15T16:27:25;100969.99;;;29.53;20.82
25869;BME280;13688;53.154;18.136;2022-07-15T16:32:47;100956.91;;;30.18;20.84
25869;BME280;13688;53.154;18.136;2022-07-15T16:38:11;100947.59;;;30.36;20.32
25869;BME280;13688;53.154;18.136;2022-07-15T16:43:33;100950.75;;;30.05;20.25
25869;BME280;13688;53.154;18.136;2022-07-15T16:48:56;100947.60;;;30.01;20.02
25869;BME280;13688;53.154;18.136;2022-07-15T16:54:18;100949.47;;;29.42;20.99
25869;BME280;13688;53.154;18.136;2022-07-15T16:59:42;100966.17;;;29.54;20.54
25869;BME280;13688;53.154;18.136;2022-07-15T17:05:04;100962.27;;;28.65;20.75
25869;BME280;13688;53.154;18.136;2022-07-15T17:10:27;100972.53;;;27.21;21.77
25869;BME280;13688;53.154;18.136;2022-07-15T17:15:49;100960.39;;;26.46;22.43
25869;BME280;13688;53.154;18.136;2022-07-15T17:21:11;100991.12;;;26.56;23.04
25869;BME280;13688;53.154;18.136;2022-07-15T17:26:34;100945.69;;;27.35;22.90
25869;BME280;13688;53.154;18.136;2022-07-15T17:31:57;100961.43;;;28.09;22.37
25869;BME280;13688;53.154;18.136;2022-07-15T17:37:20;100949.77;;;28.62;21.15
25869;BME280;13688;53.154;18.136;2022-07-15T17:42:42;100958.31;;;28.42;21.29
25869;BME280;13688;53.154;18.136;2022-07-15T17:48:05;100957.23;;;28.43;21.62
25869;BME280;13688;53.154;18.136;2022-07-15T17:53:28;100957.30;;;28.37;21.59
25869;BME280;13688;53.154;18.136;2022-07-15T17:58:51;100961.07;;;27.81;21.96
25869;BME280;13688;53.154;18.136;2022-07-15T18:04:13;100965.87;;;27.35;22.65
25869;BME280;13688;53.154;18.136;2022-07-15T18:09:35;100965.36;;;26.75;23.08
25869;BME280;13688;53.154;18.136;2022-07-15T18:14:58;100971.22;;;26.41;23.79
25869;BME280;13688;53.154;18.136;2022-07-15T18:20:21;100965.80;;;25.75;24.50
25869;BME280;13688;53.154;18.136;2022-07-15T18:25:44;100957.72;;;25.33;25.38
25869;BME280;13688;53.154;18.136;2022-07-15T18:31:08;100966.44;;;24.76;26.11
25869;BME280;13688;53.154;18.136;2022-07-15T18:36:31;100968.34;;;23.99;27.00
25869;BME280;13688;53.154;18.136;2022-07-15T18:41:53;100973.53;;;23.17;28.03
25869;BME280;13688;53.154;18.136;2022-07-15T18:47:15;100972.92;;;22.35;29.04
25869;BME280;13688;53.154;18.136;2022-07-15T18:52:37;100983.03;;;21.67;30.22
25869;BME280;13688;53.154;18.136;2022-07-15T18:58:00;100987.89;;;21.11;31.32
25869;BME280;13688;53.154;18.136;2022-07-15T19:03:23;100992.94;;;20.68;32.30
25869;BME280;13688;53.154;18.136;2022-07-15T19:08:46;100999.39;;;20.28;33.18
25869;BME280;13688;53.154;18.136;2022-07-15T19:14:08;101002.72;;;19.91;33.97
25869;BME280;13688;53.154;18.136;2022-07-15T19:19:31;101006.66;;;19.64;34.77
25869;BME280;13688;53.154;18.136;2022-07-15T19:24:54;101014.97;;;19.38;35.45
25869;BME280;13688;53.154;18.136;2022-07-15T19:30:16;101016.83;;;19.13;36.15
25869;BME280;13688;53.154;18.136;2022-07-15T19:35:39;101020.16;;;18.91;36.89
25869;BME280;13688;53.154;18.136;2022-07-15T19:41:02;101017.58;;;18.73;37.58
25869;BME280;13688;53.154;18.136;2022-07-15T19:46:26;101021.90;;;18.57;38.20
25869;BME280;13688;53.154;18.136;2022-07-15T19:51:48;101018.41;;;18.39;38.88
25869;BME280;13688;53.154;18.136;2022-07-15T19:57:10;101022.22;;;18.20;39.41
25869;BME280;13688;53.154;18.136;2022-07-15T20:02:33;101025.00;;;18.02;39.97
25869;BME280;13688;53.154;18.136;2022-07-15T20:07:56;101024.58;;;17.89;40.61
25869;BME280;13688;53.154;18.136;2022-07-15T20:13:19;101025.20;;;17.83;41.10
25869;BME280;13688;53.154;18.136;2022-07-15T20:18:41;101019.01;;;17.73;41.51
25869;BME280;13688;53.154;18.136;2022-07-15T20:24:04;101020.08;;;17.62;41.84
25869;BME280;13688;53.154;18.136;2022-07-15T20:29:27;101032.59;;;17.55;42.32
25869;BME280;13688;53.154;18.136;2022-07-15T20:34:50;101024.39;;;17.47;42.76
25869;BME280;13688;53.154;18.136;2022-07-15T20:40:13;101011.87;;;17.36;43.06
25869;BME280;13688;53.154;18.136;2022-07-15T20:45:35;101018.23;;;17.27;43.34
25869;BME280;13688;53.154;18.136;2022-07-15T20:50:58;101018.47;;;17.16;43.72
25869;BME280;13688;53.154;18.136;2022-07-15T20:56:20;101015.54;;;17.09;44.08
25869;BME280;13688;53.154;18.136;2022-07-15T21:01:43;101007.99;;;17.03;44.42
25869;BME280;13688;53.154;18.136;2022-07-15T21:07:05;101013.33;;;16.95;44.71
25869;BME280;13688;53.154;18.136;2022-07-15T21:12:28;101010.84;;;16.84;45.06
25869;BME280;13688;53.154;18.136;2022-07-15T21:17:51;101013.45;;;16.76;45.49
25869;BME280;13688;53.154;18.136;2022-07-15T21:23:13;101005.18;;;16.68;45.85
25869;BME280;13688;53.154;18.136;2022-07-15T21:28:35;101009.81;;;16.57;46.24
25869;BME280;13688;53.154;18.136;2022-07-15T21:33:58;101005.12;;;16.50;46.66
25869;BME280;13688;53.154;18.136;2022-07-15T21:39:20;101012.03;;;16.44;47.01
25869;BME280;13688;53.154;18.136;2022-07-15T21:44:44;101009.75;;;16.40;47.38
25869;BME280;13688;53.154;18.136;2022-07-15T21:50:07;101019.20;;;16.36;47.59
25869;BME280;13688;53.154;18.136;2022-07-15T21:55:30;101009.09;;;16.28;47.85
25869;BME280;13688;53.154;18.136;2022-07-15T22:00:52;101009.55;;;16.23;48.14
25869;BME280;13688;53.154;18.136;2022-07-15T22:06:14;101011.14;;;16.16;48.45
25869;BME280;13688;53.154;18.136;2022-07-15T22:11:39;101011.02;;;16.08;48.74
25869;BME280;13688;53.154;18.136;2022-07-15T22:17:01;101014.34;;;16.02;49.13
25869;BME280;13688;53.154;18.136;2022-07-15T22:22:24;101022.91;;;15.97;49.46
25869;BME280;13688;53.154;18.136;2022-07-15T22:27:46;101028.91;;;15.91;49.68
25869;BME280;13688;53.154;18.136;2022-07-15T22:33:19;101019.34;;;15.97;49.82
25869;BME280;13688;53.154;18.136;2022-07-15T22:38:42;101022.65;;;15.81;50.08
25869;BME280;13688;53.154;18.136;2022-07-15T22:44:04;101032.09;;;15.77;50.27
25869;BME280;13688;53.154;18.136;2022-07-15T22:49:26;101029.09;;;15.70;50.39
25869;BME280;13688;53.154;18.136;2022-07-15T22:54:49;101017.26;;;15.62;50.64
25869;BME280;13688;53.154;18.136;2022-07-15T23:00:12;101030.37;;;15.57;50.75
25869;BME280;13688;53.154;18.136;2022-07-15T23:05:35;101022.80;;;15.51;50.74
25869;BME280;13688;53.154;18.136;2022-07-15T23:10:57;101023.40;;;15.44;50.78
25869;BME280;13688;53.154;18.136;2022-07-15T23:16:20;101034.65;;;15.40;50.85
25869;BME280;13688;53.154;18.136;2022-07-15T23:21:43;101026.11;;;15.35;50.89
25869;BME280;13688;53.154;18.136;2022-07-15T23:27:05;101026.52;;;15.30;50.90
25869;BME280;13688;53.154;18.136;2022-07-15T23:32:28;101031.38;;;15.27;50.99
25869;BME280;13688;53.154;18.136;2022-07-15T23:37:51;101028.22;;;15.22;51.06
25869;BME280;13688;53.154;18.136;2022-07-15T23:43:13;101024.25;;;15.16;51.16
25869;BME280;13688;53.154;18.136;2022-07-15T23:48:35;101031.78;;;15.12;51.26
25869;BME280;13688;53.154;18.136;2022-07-15T23:53:58;101026.66;;;15.09;51.36
25869;BME280;13688;53.154;18.136;2022-07-15T23:59:20;101034.22;;;15.06;51.54
